sensor_id;sensor_type;location;lat;lon;timestamp;temperature;humidity
57664;DHT22;43493;53.098;6.064;2023-02-02T00:00:49;5.10;99.90
57664;DHT22;43493;53.098;6.064;2023-02-02T00:03:15;5.10;99.90
57664;DHT22;43493;53.098;6.064;2023-02-02T00:05:50;5.10;99.90
57664;DHT22;43493;53.098;6.064;2023-02-02T00:08:17;5.10;99.90
57664;DHT22;43493;53.098;6.064;2023-02-02T00:10:44;5.20;99.90
57664;DHT22;43493;53.098;6.064;2023-02-02T00:13:10;5.20;99.90
57664;DHT22;43493;53.098;6.064;2023-02-02T00:15:36;5.20;99.90
57664;DHT22;43493;53.098;6.064;2023-02-02T00:18:03;5.20;99.90
57664;DHT22;43493;53.098;6.064;2023-02-02T00:20:29;5.20;99.90
57664;DHT22;43493;53.098;6.064;2023-02-02T00:22:55;5.20;99.90
57664;DHT22;43493;53.098;6.064;2023-02-02T00:25:22;5.30;99.90
57664;DHT22;43493;53.098;6.064;2023-02-02T00:27:47;5.30;99.90
57664;DHT22;43493;53.098;6.064;2023-02-02T00:30:13;5.40;99.90
57664;DHT22;43493;53.098;6.064;2023-02-02T00:32:39;5.40;99.90
57664;DHT22;43493;53.098;6.064;2023-02-02T00:35:06;5.40;99.90
57664;DHT22;43493;53.098;6.064;2023-02-02T00:37:33;5.50;99.90
57664;DHT22;43493;53.098;6.064;2023-02-02T00:39:58;5.50;99.90
57664;DHT22;43493;53.098;6.064;2023-02-02T00:42:24;5.50;99.90
57664;DHT22;43493;53.098;6.064;2023-02-02T00:44:50;5.40;99.90
57664;DHT22;43493;53.098;6.064;2023-02-02T00:47:34;5.50;99.90
57664;DHT22;43493;53.098;6.064;2023-02-02T00:50:00;5.50;99.90
57664;DHT22;43493;53.098;6.064;2023-02-02T00:52:26;5.50;99.90
57664;DHT22;43493;53.098;6.064;2023-02-02T00:54:52;5.50;99.90
57664;DHT22;43493;53.098;6.064;2023-02-02T00:57:18;5.50;99.90
57664;DHT22;43493;53.098;6.064;2023-02-02T00:59:43;5.50;99.90
57664;DHT22;43493;53.098;6.064;2023-02-02T01:02:12;5.50;99.90
57664;DHT22;43493;53.098;6.064;2023-02-02T01:04:38;5.50;99.90
57664;DHT22;43493;53.098;6.064;2023-02-02T01:07:04;5.50;99.90
57664;DHT22;43493;53.098;6.064;2023-02-02T01:09:30;5.60;99.90
57664;DHT22;43493;53.098;6.064;2023-02-02T01:11:56;5.60;99.90
57664;DHT22;43493;53.098;6.064;2023-02-02T01:14:21;5.60;99.90
57664;DHT22;43493;53.098;6.064;2023-02-02T01:16:47;5.60;99.90
57664;DHT22;43493;53.098;6.064;2023-02-02T01:19:14;5.60;99.90
57664;DHT22;43493;53.098;6.064;2023-02-02T01:21:40;5.60;99.90
57664;DHT22;43493;53.098;6.064;2023-02-02T01:24:06;5.70;99.90
57664;DHT22;43493;53.098;6.064;2023-02-02T01:26:32;5.70;99.90
57664;DHT22;43493;53.098;6.064;2023-02-02T01:28:58;5.70;99.90
57664;DHT22;43493;53.098;6.064;2023-02-02T01:31:24;5.70;99.90
57664;DHT22;43493;53.098;6.064;2023-02-02T01:33:50;5.70;99.90
57664;DHT22;43493;53.098;6.064;2023-02-02T01:36:18;5.80;99.90
57664;DHT22;43493;53.098;6.064;2023-02-02T01:38:45;5.80;99.90
57664;DHT22;43493;53.098;6.064;2023-02-02T01:41:16;5.80;99.90
57664;DHT22;43493;53.098;6.064;2023-02-02T01:46:31;5.80;99.90
57664;DHT22;43493;53.098;6.064;2023-02-02T01:51:39;5.90;99.90
57664;DHT22;43493;53.098;6.064;2023-02-02T01:54:16;5.90;99.90
57664;DHT22;43493;53.098;6.064;2023-02-02T01:56:48;5.90;99.90
57664;DHT22;43493;53.098;6.064;2023-02-02T01:59:16;6.00;99.90
57664;DHT22;43493;53.098;6.064;2023-02-02T02:01:44;6.00;99.90
57664;DHT22;43493;53.098;6.064;2023-02-02T02:04:11;6.00;99.90
57664;DHT22;43493;53.098;6.064;2023-02-02T02:06:37;6.00;99.90
57664;DHT22;43493;53.098;6.064;2023-02-02T02:09:04;6.10;99.90
57664;DHT22;43493;53.098;6.064;2023-02-02T02:11:32;6.10;99.90
57664;DHT22;43493;53.098;6.064;2023-02-02T02:14:06;6.10;99.90
57664;DHT22;43493;53.098;6.064;2023-02-02T02:34:02;6.20;99.90
57664;DHT22;43493;53.098;6.064;2023-02-02T02:39:18;6.30;99.90
57664;DHT22;43493;53.098;6.064;2023-02-02T02:41:49;6.30;99.90
57664;DHT22;43493;53.098;6.064;2023-02-02T02:44:17;6.30;99.90
57664;DHT22;43493;53.098;6.064;2023-02-02T02:46:44;6.30;99.90
57664;DHT22;43493;53.098;6.064;2023-02-02T02:49:11;6.30;99.90
57664;DHT22;43493;53.098;6.064;2023-02-02T02:51:42;6.30;99.90
57664;DHT22;43493;53.098;6.064;2023-02-02T03:05:53;6.30;99.90
57664;DHT22;43493;53.098;6.064;2023-02-02T03:08:29;6.30;99.90
57664;DHT22;43493;53.098;6.064;2023-02-02T03:10:57;6.40;99.90
57664;DHT22;43493;53.098;6.064;2023-02-02T03:13:25;6.40;99.90
57664;DHT22;43493;53.098;6.064;2023-02-02T03:15:51;6.40;99.90
57664;DHT22;43493;53.098;6.064;2023-02-02T03:18:19;6.40;99.90
57664;DHT22;43493;53.098;6.064;2023-02-02T03:20:47;6.40;99.90
57664;DHT22;43493;53.098;6.064;2023-02-02T03:23:12;6.40;99.90
57664;DHT22;43493;53.098;6.064;2023-02-02T03:25:38;6.40;99.90
57664;DHT22;43493;53.098;6.064;2023-02-02T03:28:05;6.40;99.90
57664;DHT22;43493;53.098;6.064;2023-02-02T03:30:31;6.40;99.90
57664;DHT22;43493;53.098;6.064;2023-02-02T03:32:57;6.40;99.90
57664;DHT22;43493;53.098;6.064;2023-02-02T03:35:23;6.40;99.90
57664;DHT22;43493;53.098;6.064;2023-02-02T03:37:51;6.40;99.90
57664;DHT22;43493;53.098;6.064;2023-02-02T03:40:17;6.40;99.90
57664;DHT22;43493;53.098;6.064;2023-02-02T03:42:43;6.40;99.90
57664;DHT22;43493;53.098;6.064;2023-02-02T03:45:09;6.40;99.90
57664;DHT22;43493;53.098;6.064;2023-02-02T03:47:35;6.30;99.90
57664;DHT22;43493;53.098;6.064;2023-02-02T03:50:01;6.40;99.90
57664;DHT22;43493;53.098;6.064;2023-02-02T03:52:26;6.30;99.90
57664;DHT22;43493;53.098;6.064;2023-02-02T03:54:52;6.30;99.90
57664;DHT22;43493;53.098;6.064;2023-02-02T03:57:18;6.30;99.90
57664;DHT22;43493;53.098;6.064;2023-02-02T03:59:44;6.30;99.90
57664;DHT22;43493;53.098;6.064;2023-02-02T04:02:10;6.30;99.90
57664;DHT22;43493;53.098;6.064;2023-02-02T04:04:35;6.30;99.90
57664;DHT22;43493;53.098;6.064;2023-02-02T04:07:01;6.30;99.90
57664;DHT22;43493;53.098;6.064;2023-02-02T04:09:27;6.30;99.90
57664;DHT22;43493;53.098;6.064;2023-02-02T04:11:53;6.20;99.90
57664;DHT22;43493;53.098;6.064;2023-02-02T04:14:19;6.20;99.90
57664;DHT22;43493;53.098;6.064;2023-02-02T04:16:45;6.20;99.90
57664;DHT22;43493;53.098;6.064;2023-02-02T04:19:10;6.20;99.90
57664;DHT22;43493;53.098;6.064;2023-02-02T04:21:37;6.20;99.90
57664;DHT22;43493;53.098;6.064;2023-02-02T04:24:13;6.20;99.90
57664;DHT22;43493;53.098;6.064;2023-02-02T04:26:39;6.20;99.90
57664;DHT22;43493;53.098;6.064;2023-02-02T04:29:05;6.20;99.90
57664;DHT22;43493;53.098;6.064;2023-02-02T04:31:30;6.20;99.90
57664;DHT22;43493;53.098;6.064;2023-02-02T04:33:56;6.20;99.90
57664;DHT22;43493;53.098;6.064;2023-02-02T04:36:22;6.20;99.90
57664;DHT22;43493;53.098;6.064;2023-02-02T04:38:52;6.20;99.90
57664;DHT22;43493;53.098;6.064;2023-02-02T04:41:18;6.20;99.90
57664;DHT22;43493;53.098;6.064;2023-02-02T04:43:44;6.10;99.90
57664;DHT22;43493;53.098;6.064;2023-02-02T04:46:10;6.20;99.90
57664;DHT22;43493;53.098;6.064;2023-02-02T04:48:37;6.20;99.90
57664;DHT22;43493;53.098;6.064;2023-02-02T04:51:09;6.20;99.90
57664;DHT22;43493;53.098;6.064;2023-02-02T04:53:35;6.20;99.90
57664;DHT22;43493;53.098;6.064;2023-02-02T04:56:11;6.20;99.90
57664;DHT22;43493;53.098;6.064;2023-02-02T04:58:37;6.20;99.90
57664;DHT22;43493;53.098;6.064;2023-02-02T05:01:18;6.20;99.90
57664;DHT22;43493;53.098;6.064;2023-02-02T05:03:44;6.20;99.90
57664;DHT22;43493;53.098;6.064;2023-02-02T05:06:10;6.20;99.90
57664;DHT22;43493;53.098;6.064;2023-02-02T05:08:36;6.20;99.90
57664;DHT22;43493;53.098;6.064;2023-02-02T05:11:06;6.20;99.90
57664;DHT22;43493;53.098;6.064;2023-02-02T05:13:32;6.20;99.90
57664;DHT22;43493;53.098;6.064;2023-02-02T05:15:58;6.20;99.90
57664;DHT22;43493;53.098;6.064;2023-02-02T05:18:24;6.20;99.90
57664;DHT22;43493;53.098;6.064;2023-02-02T05:20:50;6.20;99.90
57664;DHT22;43493;53.098;6.064;2023-02-02T05:23:17;6.10;99.90
57664;DHT22;43493;53.098;6.064;2023-02-02T05:25:43;6.20;99.90
57664;DHT22;43493;53.098;6.064;2023-02-02T05:28:09;6.20;99.90
57664;DHT22;43493;53.098;6.064;2023-02-02T05:30:38;6.10;99.90
57664;DHT22;43493;53.098;6.064;2023-02-02T05:33:03;6.20;99.90
57664;DHT22;43493;53.098;6.064;2023-02-02T05:35:29;6.10;99.90
57664;DHT22;43493;53.098;6.064;2023-02-02T05:37:55;6.20;99.90
57664;DHT22;43493;53.098;6.064;2023-02-02T05:40:20;6.20;99.90
57664;DHT22;43493;53.098;6.064;2023-02-02T05:42:47;6.20;99.90
57664;DHT22;43493;53.098;6.064;2023-02-02T05:45:13;6.20;99.90
57664;DHT22;43493;53.098;6.064;2023-02-02T05:47:39;6.20;99.90
57664;DHT22;43493;53.098;6.064;2023-02-02T05:50:05;6.20;99.90
57664;DHT22;43493;53.098;6.064;2023-02-02T05:52:33;6.20;99.90
57664;DHT22;43493;53.098;6.064;2023-02-02T05:55:00;6.10;99.90
57664;DHT22;43493;53.098;6.064;2023-02-02T05:57:25;6.20;99.90
57664;DHT22;43493;53.098;6.064;2023-02-02T05:59:53;6.20;99.90
57664;DHT22;43493;53.098;6.064;2023-02-02T06:02:18;6.10;99.90
57664;DHT22;43493;53.098;6.064;2023-02-02T06:04:44;6.10;99.90
57664;DHT22;43493;53.098;6.064;2023-02-02T06:07:10;6.10;99.90
57664;DHT22;43493;53.098;6.064;2023-02-02T06:09:37;6.10;99.90
57664;DHT22;43493;53.098;6.064;2023-02-02T06:12:03;6.10;99.90
57664;DHT22;43493;53.098;6.064;2023-02-02T06:14:29;6.20;99.90
57664;DHT22;43493;53.098;6.064;2023-02-02T06:16:54;6.20;99.90
57664;DHT22;43493;53.098;6.064;2023-02-02T06:19:20;6.10;99.90
57664;DHT22;43493;53.098;6.064;2023-02-02T06:21:46;6.20;99.90
57664;DHT22;43493;53.098;6.064;2023-02-02T06:24:12;6.20;99.90
57664;DHT22;43493;53.098;6.064;2023-02-02T06:26:37;6.20;99.90
57664;DHT22;43493;53.098;6.064;2023-02-02T06:29:03;6.20;99.90
57664;DHT22;43493;53.098;6.064;2023-02-02T06:31:29;6.20;99.90
57664;DHT22;43493;53.098;6.064;2023-02-02T06:33:56;6.20;99.90
57664;DHT22;43493;53.098;6.064;2023-02-02T06:36:24;6.20;99.90
57664;DHT22;43493;53.098;6.064;2023-02-02T06:38:51;6.20;99.90
57664;DHT22;43493;53.098;6.064;2023-02-02T06:41:18;6.20;99.90
57664;DHT22;43493;53.098;6.064;2023-02-02T06:43:48;6.20;99.90
57664;DHT22;43493;53.098;6.064;2023-02-02T06:46:14;6.20;99.90
57664;DHT22;43493;53.098;6.064;2023-02-02T06:48:40;6.20;99.90
57664;DHT22;43493;53.098;6.064;2023-02-02T06:51:06;6.20;99.90
57664;DHT22;43493;53.098;6.064;2023-02-02T06:53:33;6.20;99.90
57664;DHT22;43493;53.098;6.064;2023-02-02T06:56:01;6.20;99.90
57664;DHT22;43493;53.098;6.064;2023-02-02T06:58:28;6.20;99.90
57664;DHT22;43493;53.098;6.064;2023-02-02T07:00:54;6.20;99.90
57664;DHT22;43493;53.098;6.064;2023-02-02T07:03:21;6.20;99.90
57664;DHT22;43493;53.098;6.064;2023-02-02T07:05:48;6.20;99.90
57664;DHT22;43493;53.098;6.064;2023-02-02T07:08:14;6.20;99.90
57664;DHT22;43493;53.098;6.064;2023-02-02T07:10:40;6.20;99.90
57664;DHT22;43493;53.098;6.064;2023-02-02T07:13:06;6.20;99.90
57664;DHT22;43493;53.098;6.064;2023-02-02T07:15:32;6.20;99.90
57664;DHT22;43493;53.098;6.064;2023-02-02T07:17:59;6.20;99.90
57664;DHT22;43493;53.098;6.064;2023-02-02T07:20:25;6.20;99.90
57664;DHT22;43493;53.098;6.064;2023-02-02T07:22:51;6.30;99.90
57664;DHT22;43493;53.098;6.064;2023-02-02T07:25:17;6.20;99.90
57664;DHT22;43493;53.098;6.064;2023-02-02T07:27:42;6.30;99.90
57664;DHT22;43493;53.098;6.064;2023-02-02T07:30:09;6.20;99.90
57664;DHT22;43493;53.098;6.064;2023-02-02T07:32:35;6.30;99.90
57664;DHT22;43493;53.098;6.064;2023-02-02T07:35:00;6.30;99.90
57664;DHT22;43493;53.098;6.064;2023-02-02T07:37:26;6.20;99.90
57664;DHT22;43493;53.098;6.064;2023-02-02T07:39:52;6.20;99.90
57664;DHT22;43493;53.098;6.064;2023-02-02T07:42:18;6.30;99.90
57664;DHT22;43493;53.098;6.064;2023-02-02T07:44:44;6.30;99.90
57664;DHT22;43493;53.098;6.064;2023-02-02T07:47:10;6.30;99.90
57664;DHT22;43493;53.098;6.064;2023-02-02T07:49:36;6.30;99.90
57664;DHT22;43493;53.098;6.064;2023-02-02T07:52:02;6.30;99.90
57664;DHT22;43493;53.098;6.064;2023-02-02T07:54:27;6.30;99.90
57664;DHT22;43493;53.098;6.064;2023-02-02T07:56:53;6.30;99.90
57664;DHT22;43493;53.098;6.064;2023-02-02T07:59:19;6.30;99.90
57664;DHT22;43493;53.098;6.064;2023-02-02T08:01:45;6.30;99.90
57664;DHT22;43493;53.098;6.064;2023-02-02T08:04:10;6.30;99.90
57664;DHT22;43493;53.098;6.064;2023-02-02T08:06:37;6.30;99.90
57664;DHT22;43493;53.098;6.064;2023-02-02T08:09:05;6.30;99.90
57664;DHT22;43493;53.098;6.064;2023-02-02T08:11:32;6.30;99.90
57664;DHT22;43493;53.098;6.064;2023-02-02T08:13:59;6.30;99.90
57664;DHT22;43493;53.098;6.064;2023-02-02T08:16:27;6.30;99.90
57664;DHT22;43493;53.098;6.064;2023-02-02T08:18:53;6.30;99.90
57664;DHT22;43493;53.098;6.064;2023-02-02T08:21:20;6.30;99.90
57664;DHT22;43493;53.098;6.064;2023-02-02T08:23:46;6.40;99.90
57664;DHT22;43493;53.098;6.064;2023-02-02T08:28:44;6.40;99.90
57664;DHT22;43493;53.098;6.064;2023-02-02T08:31:11;6.40;99.90
57664;DHT22;43493;53.098;6.064;2023-02-02T08:33:38;6.40;99.90
57664;DHT22;43493;53.098;6.064;2023-02-02T08:36:06;6.50;99.90
57664;DHT22;43493;53.098;6.064;2023-02-02T08:38:32;6.40;99.90
57664;DHT22;43493;53.098;6.064;2023-02-02T08:41:04;6.50;99.90
57664;DHT22;43493;53.098;6.064;2023-02-02T08:43:30;6.50;99.90
57664;DHT22;43493;53.098;6.064;2023-02-02T08:45:56;6.50;99.90
57664;DHT22;43493;53.098;6.064;2023-02-02T08:48:21;6.50;99.90
57664;DHT22;43493;53.098;6.064;2023-02-02T08:50:52;6.50;99.90
57664;DHT22;43493;53.098;6.064;2023-02-02T08:53:18;6.50;99.90
57664;DHT22;43493;53.098;6.064;2023-02-02T08:55:44;6.60;99.90
57664;DHT22;43493;53.098;6.064;2023-02-02T08:58:09;6.60;99.90
57664;DHT22;43493;53.098;6.064;2023-02-02T09:00:35;6.60;99.90
57664;DHT22;43493;53.098;6.064;2023-02-02T09:03:01;6.60;99.90
57664;DHT22;43493;53.098;6.064;2023-02-02T09:05:27;6.60;99.90
57664;DHT22;43493;53.098;6.064;2023-02-02T09:07:52;6.60;99.90
57664;DHT22;43493;53.098;6.064;2023-02-02T09:10:18;6.60;99.90
57664;DHT22;43493;53.098;6.064;2023-02-02T09:12:44;6.70;99.90
57664;DHT22;43493;53.098;6.064;2023-02-02T09:15:09;6.60;99.90
57664;DHT22;43493;53.098;6.064;2023-02-02T09:17:36;6.70;99.90
57664;DHT22;43493;53.098;6.064;2023-02-02T09:20:02;6.70;99.90
57664;DHT22;43493;53.098;6.064;2023-02-02T09:22:29;6.70;99.90
57664;DHT22;43493;53.098;6.064;2023-02-02T09:24:55;6.70;99.90
57664;DHT22;43493;53.098;6.064;2023-02-02T09:27:21;6.70;99.90
57664;DHT22;43493;53.098;6.064;2023-02-02T09:29:46;6.70;99.90
57664;DHT22;43493;53.098;6.064;2023-02-02T09:32:13;6.80;99.90
57664;DHT22;43493;53.098;6.064;2023-02-02T09:34:39;6.80;99.90
57664;DHT22;43493;53.098;6.064;2023-02-02T09:37:04;6.80;99.90
57664;DHT22;43493;53.098;6.064;2023-02-02T09:39:30;6.80;99.90
57664;DHT22;43493;53.098;6.064;2023-02-02T09:42:12;6.90;99.90
57664;DHT22;43493;53.098;6.064;2023-02-02T09:44:58;6.90;99.90
57664;DHT22;43493;53.098;6.064;2023-02-02T09:50:08;6.90;99.90
57664;DHT22;43493;53.098;6.064;2023-02-02T09:52:45;7.00;99.90
57664;DHT22;43493;53.098;6.064;2023-02-02T09:58:11;7.00;99.90
57664;DHT22;43493;53.098;6.064;2023-02-02T10:00:47;7.10;99.90
57664;DHT22;43493;53.098;6.064;2023-02-02T10:06:05;7.10;99.90
57664;DHT22;43493;53.098;6.064;2023-02-02T10:08:42;7.10;99.90
57664;DHT22;43493;53.098;6.064;2023-02-02T10:11:35;7.10;99.90
57664;DHT22;43493;53.098;6.064;2023-02-02T10:14:12;7.10;99.90
57664;DHT22;43493;53.098;6.064;2023-02-02T10:16:41;7.20;99.90
57664;DHT22;43493;53.098;6.064;2023-02-02T10:19:12;7.10;99.90
57664;DHT22;43493;53.098;6.064;2023-02-02T10:24:23;7.10;99.90
57664;DHT22;43493;53.098;6.064;2023-02-02T10:27:02;7.10;99.90
57664;DHT22;43493;53.098;6.064;2023-02-02T10:29:58;7.10;99.90
57664;DHT22;43493;53.098;6.064;2023-02-02T10:32:34;7.10;99.90
57664;DHT22;43493;53.098;6.064;2023-02-02T10:35:35;7.10;99.90
57664;DHT22;43493;53.098;6.064;2023-02-02T10:47:20;7.20;99.90
57664;DHT22;43493;53.098;6.064;2023-02-02T10:49:48;7.20;99.90
57664;DHT22;43493;53.098;6.064;2023-02-02T10:52:24;7.20;99.90
57664;DHT22;43493;53.098;6.064;2023-02-02T10:58:11;7.30;99.90
57664;DHT22;43493;53.098;6.064;2023-02-02T11:00:39;7.20;99.90
57664;DHT22;43493;53.098;6.064;2023-02-02T11:03:09;7.20;99.90
57664;DHT22;43493;53.098;6.064;2023-02-02T11:05:36;7.30;99.90
57664;DHT22;43493;53.098;6.064;2023-02-02T11:08:24;7.30;99.90
57664;DHT22;43493;53.098;6.064;2023-02-02T11:10:54;7.30;99.90
57664;DHT22;43493;53.098;6.064;2023-02-02T11:13:28;7.30;99.90
57664;DHT22;43493;53.098;6.064;2023-02-02T11:18:39;7.30;99.90
57664;DHT22;43493;53.098;6.064;2023-02-02T11:21:26;7.30;99.90
57664;DHT22;43493;53.098;6.064;2023-02-02T11:26:19;7.30;99.90
57664;DHT22;43493;53.098;6.064;2023-02-02T11:28:47;7.30;99.90
57664;DHT22;43493;53.098;6.064;2023-02-02T11:31:29;7.30;99.90
57664;DHT22;43493;53.098;6.064;2023-02-02T11:34:20;7.40;99.90
57664;DHT22;43493;53.098;6.064;2023-02-02T11:37:12;7.30;99.90
57664;DHT22;43493;53.098;6.064;2023-02-02T11:39:42;7.40;99.90
57664;DHT22;43493;53.098;6.064;2023-02-02T11:42:16;7.40;99.90
57664;DHT22;43493;53.098;6.064;2023-02-02T11:44:49;7.40;99.90
57664;DHT22;43493;53.098;6.064;2023-02-02T11:47:24;7.40;99.90
57664;DHT22;43493;53.098;6.064;2023-02-02T11:49:51;7.40;99.90
57664;DHT22;43493;53.098;6.064;2023-02-02T11:52:21;7.40;99.90
57664;DHT22;43493;53.098;6.064;2023-02-02T11:54:53;7.40;99.90
57664;DHT22;43493;53.098;6.064;2023-02-02T11:57:23;7.40;99.90
57664;DHT22;43493;53.098;6.064;2023-02-02T11:59:51;7.40;99.90
57664;DHT22;43493;53.098;6.064;2023-02-02T12:02:31;7.40;99.90
57664;DHT22;43493;53.098;6.064;2023-02-02T12:05:32;7.40;99.90
57664;DHT22;43493;53.098;6.064;2023-02-02T12:07:58;7.40;99.90
57664;DHT22;43493;53.098;6.064;2023-02-02T12:21:44;7.40;99.90
57664;DHT22;43493;53.098;6.064;2023-02-02T12:24:30;7.40;99.90
57664;DHT22;43493;53.098;6.064;2023-02-02T12:27:10;7.40;99.90
57664;DHT22;43493;53.098;6.064;2023-02-02T12:35:54;7.40;99.90
57664;DHT22;43493;53.098;6.064;2023-02-02T12:41:19;7.40;99.90
57664;DHT22;43493;53.098;6.064;2023-02-02T12:49:30;7.40;99.90
57664;DHT22;43493;53.098;6.064;2023-02-02T12:52:35;7.40;99.90
57664;DHT22;43493;53.098;6.064;2023-02-02T12:55:14;7.40;99.90
57664;DHT22;43493;53.098;6.064;2023-02-02T13:00:52;7.40;99.90
57664;DHT22;43493;53.098;6.064;2023-02-02T13:06:13;7.40;99.90
57664;DHT22;43493;53.098;6.064;2023-02-02T13:08:51;7.50;99.90
57664;DHT22;43493;53.098;6.064;2023-02-02T13:11:31;7.50;99.90
57664;DHT22;43493;53.098;6.064;2023-02-02T13:14:12;7.50;99.90
57664;DHT22;43493;53.098;6.064;2023-02-02T13:16:43;7.50;99.90
57664;DHT22;43493;53.098;6.064;2023-02-02T13:22:35;7.60;99.90
57664;DHT22;43493;53.098;6.064;2023-02-02T13:25:04;7.60;99.90
57664;DHT22;43493;53.098;6.064;2023-02-02T13:27:33;7.60;99.90
57664;DHT22;43493;53.098;6.064;2023-02-02T13:30:12;7.60;99.90
57664;DHT22;43493;53.098;6.064;2023-02-02T13:32:43;7.60;99.90
57664;DHT22;43493;53.098;6.064;2023-02-02T13:35:30;7.60;99.90
57664;DHT22;43493;53.098;6.064;2023-02-02T13:57:47;7.70;99.90
57664;DHT22;43493;53.098;6.064;2023-02-02T14:00:20;7.70;99.90
57664;DHT22;43493;53.098;6.064;2023-02-02T14:02:53;7.70;99.90
57664;DHT22;43493;53.098;6.064;2023-02-02T14:05:37;7.70;99.90
57664;DHT22;43493;53.098;6.064;2023-02-02T14:08:19;7.80;99.90
57664;DHT22;43493;53.098;6.064;2023-02-02T14:13:25;7.80;99.90
57664;DHT22;43493;53.098;6.064;2023-02-02T14:19:03;7.80;99.90
57664;DHT22;43493;53.098;6.064;2023-02-02T14:23:59;7.80;99.90
57664;DHT22;43493;53.098;6.064;2023-02-02T14:26:50;7.80;99.90
57664;DHT22;43493;53.098;6.064;2023-02-02T14:31:58;7.80;99.90
57664;DHT22;43493;53.098;6.064;2023-02-02T14:48:21;7.80;99.90
57664;DHT22;43493;53.098;6.064;2023-02-02T14:50:57;7.80;99.90
57664;DHT22;43493;53.098;6.064;2023-02-02T14:53:27;7.80;99.90
57664;DHT22;43493;53.098;6.064;2023-02-02T14:56:00;7.80;99.90
57664;DHT22;43493;53.098;6.064;2023-02-02T14:58:33;7.80;99.90
57664;DHT22;43493;53.098;6.064;2023-02-02T15:06:44;7.80;99.90
57664;DHT22;43493;53.098;6.064;2023-02-02T15:12:17;7.80;99.90
57664;DHT22;43493;53.098;6.064;2023-02-02T15:14:48;7.80;99.90
57664;DHT22;43493;53.098;6.064;2023-02-02T15:22:55;7.80;99.90
57664;DHT22;43493;53.098;6.064;2023-02-02T15:30:34;7.80;99.90
57664;DHT22;43493;53.098;6.064;2023-02-02T15:33:10;7.80;99.90
57664;DHT22;43493;53.098;6.064;2023-02-02T15:35:39;7.80;99.90
57664;DHT22;43493;53.098;6.064;2023-02-02T15:38:06;7.80;99.90
57664;DHT22;43493;53.098;6.064;2023-02-02T15:40:37;7.80;99.90
57664;DHT22;43493;53.098;6.064;2023-02-02T15:43:05;7.80;99.90
57664;DHT22;43493;53.098;6.064;2023-02-02T15:45:38;7.80;99.90
57664;DHT22;43493;53.098;6.064;2023-02-02T15:48:29;7.70;99.90
57664;DHT22;43493;53.098;6.064;2023-02-02T15:51:15;7.80;99.90
57664;DHT22;43493;53.098;6.064;2023-02-02T15:58:54;7.80;99.90
57664;DHT22;43493;53.098;6.064;2023-02-02T16:01:22;7.80;99.90
57664;DHT22;43493;53.098;6.064;2023-02-02T16:06:36;7.80;99.90
57664;DHT22;43493;53.098;6.064;2023-02-02T16:09:06;7.80;99.90
57664;DHT22;43493;53.098;6.064;2023-02-02T16:11:33;7.70;99.90
57664;DHT22;43493;53.098;6.064;2023-02-02T16:14:11;7.80;99.90
57664;DHT22;43493;53.098;6.064;2023-02-02T16:16:38;7.80;99.90
57664;DHT22;43493;53.098;6.064;2023-02-02T16:21:36;7.80;99.90
57664;DHT22;43493;53.098;6.064;2023-02-02T16:24:04;7.80;99.90
57664;DHT22;43493;53.098;6.064;2023-02-02T16:26:33;7.80;99.90
57664;DHT22;43493;53.098;6.064;2023-02-02T16:28:59;7.80;99.90
57664;DHT22;43493;53.098;6.064;2023-02-02T16:31:26;7.80;99.90
57664;DHT22;43493;53.098;6.064;2023-02-02T16:33:55;7.80;99.90
57664;DHT22;43493;53.098;6.064;2023-02-02T16:36:28;7.80;99.90
57664;DHT22;43493;53.098;6.064;2023-02-02T16:38:56;7.80;99.90
57664;DHT22;43493;53.098;6.064;2023-02-02T16:41:30;7.80;99.90
57664;DHT22;43493;53.098;6.064;2023-02-02T16:47:02;7.80;99.90
57664;DHT22;43493;53.098;6.064;2023-02-02T16:49:29;7.80;99.90
57664;DHT22;43493;53.098;6.064;2023-02-02T16:52:16;7.80;99.90
57664;DHT22;43493;53.098;6.064;2023-02-02T16:54:53;7.80;99.90
57664;DHT22;43493;53.098;6.064;2023-02-02T16:57:26;7.80;99.90
57664;DHT22;43493;53.098;6.064;2023-02-02T16:59:55;7.80;99.90
57664;DHT22;43493;53.098;6.064;2023-02-02T17:02:33;7.80;99.90
57664;DHT22;43493;53.098;6.064;2023-02-02T17:05:06;7.70;99.90
57664;DHT22;43493;53.098;6.064;2023-02-02T17:07:46;7.80;99.90
57664;DHT22;43493;53.098;6.064;2023-02-02T17:10:21;7.80;99.90
57664;DHT22;43493;53.098;6.064;2023-02-02T17:12:49;7.80;99.90
57664;DHT22;43493;53.098;6.064;2023-02-02T17:17:41;7.70;99.90
57664;DHT22;43493;53.098;6.064;2023-02-02T17:20:08;7.80;99.90
57664;DHT22;43493;53.098;6.064;2023-02-02T17:22:38;7.80;99.90
57664;DHT22;43493;53.098;6.064;2023-02-02T17:25:05;7.80;99.90
57664;DHT22;43493;53.098;6.064;2023-02-02T17:27:32;7.70;99.90
57664;DHT22;43493;53.098;6.064;2023-02-02T17:30:00;7.80;99.90
57664;DHT22;43493;53.098;6.064;2023-02-02T17:32:26;7.80;99.90
57664;DHT22;43493;53.098;6.064;2023-02-02T17:34:52;7.80;99.90
57664;DHT22;43493;53.098;6.064;2023-02-02T17:37:18;7.70;99.90
57664;DHT22;43493;53.098;6.064;2023-02-02T17:39:43;7.80;99.90
57664;DHT22;43493;53.098;6.064;2023-02-02T17:42:23;7.80;99.90
57664;DHT22;43493;53.098;6.064;2023-02-02T17:44:50;7.80;99.90
57664;DHT22;43493;53.098;6.064;2023-02-02T17:47:16;7.80;99.90
57664;DHT22;43493;53.098;6.064;2023-02-02T17:49:42;7.80;99.90
57664;DHT22;43493;53.098;6.064;2023-02-02T17:52:09;7.80;99.90
57664;DHT22;43493;53.098;6.064;2023-02-02T17:54:35;7.80;99.90
57664;DHT22;43493;53.098;6.064;2023-02-02T17:57:01;7.80;99.90
57664;DHT22;43493;53.098;6.064;2023-02-02T17:59:26;7.80;99.90
57664;DHT22;43493;53.098;6.064;2023-02-02T18:01:52;7.80;99.90
57664;DHT22;43493;53.098;6.064;2023-02-02T18:04:20;7.80;99.90
57664;DHT22;43493;53.098;6.064;2023-02-02T18:06:46;7.90;99.90
57664;DHT22;43493;53.098;6.064;2023-02-02T18:09:12;7.80;99.90
57664;DHT22;43493;53.098;6.064;2023-02-02T18:11:37;7.90;99.90
57664;DHT22;43493;53.098;6.064;2023-02-02T18:14:03;7.90;99.90
57664;DHT22;43493;53.098;6.064;2023-02-02T18:16:29;7.90;99.90
57664;DHT22;43493;53.098;6.064;2023-02-02T18:18:55;7.80;99.90
57664;DHT22;43493;53.098;6.064;2023-02-02T18:21:23;7.90;99.90
57664;DHT22;43493;53.098;6.064;2023-02-02T18:23:50;7.90;99.90
57664;DHT22;43493;53.098;6.064;2023-02-02T18:26:18;7.90;99.90
57664;DHT22;43493;53.098;6.064;2023-02-02T18:28:47;7.90;99.90
57664;DHT22;43493;53.098;6.064;2023-02-02T18:31:16;7.90;99.90
57664;DHT22;43493;53.098;6.064;2023-02-02T18:33:42;7.90;99.90
57664;DHT22;43493;53.098;6.064;2023-02-02T18:36:12;7.90;99.90
57664;DHT22;43493;53.098;6.064;2023-02-02T18:38:40;7.90;99.90
57664;DHT22;43493;53.098;6.064;2023-02-02T18:41:06;7.90;99.90
57664;DHT22;43493;53.098;6.064;2023-02-02T18:43:32;7.90;99.90
57664;DHT22;43493;53.098;6.064;2023-02-02T18:45:59;7.90;99.90
57664;DHT22;43493;53.098;6.064;2023-02-02T18:48:25;7.90;99.90
57664;DHT22;43493;53.098;6.064;2023-02-02T18:50:51;8.00;99.90
57664;DHT22;43493;53.098;6.064;2023-02-02T18:53:17;8.00;99.90
57664;DHT22;43493;53.098;6.064;2023-02-02T18:55:43;8.00;99.90
57664;DHT22;43493;53.098;6.064;2023-02-02T18:58:08;8.00;99.90
57664;DHT22;43493;53.098;6.064;2023-02-02T19:00:42;8.00;99.90